KILN

Airborne Airpark

Airport
ICAO code
KILN
Summary
ICAO Region
NAM
ICAO Territory
Location

Wilmington, Ohio,

Coordinates
39° 25' 40" N , 83° 47' 32" W
KCC
Metar
Observation
KILN 260854Z AUTO 25007KT 10SM FEW050 SCT065 OVC100 13/11 A2978 RMK AO2 SLP084 T01330106 56009
Station
Wilmington, Airborne Airpark Airport
Date/Time
2022-09-26 08:54:00
Wind direction
250°
Wind speed
07 kts
Lowest cloud amount
few clouds
Temperature
13.3°C
Dew point
10.6°C
Humidity
83%
Weather condition
n/a

Description

Airborne Airpark is a public-use airport located 3.7 km southeast of the central business district of Wilmington, a city in Clinton County, Ohio, United States. Airborne Express had formerly had private ownership of the property while operating from it but the company subsequently decided to donate the property to the Clinton County Port Authority.

The airport was formerly known as Clinton County Air Force Base.

Climatology

Humid continental climate (Köppen climate classification Dfa) - characterized by four seasons: cold, windy, snowy winters, mild springs, hot, humid summers, and crisp and relatively short autumns. Precipitation reaches its lowest in January and February and peaks in summer and latter half of spring.

Airport map

Aerial View

SKYbrary Partners:

Safety knowledge contributed by: